Lantana, FL

10:49 PM EST on November 22, 2014 (GMT -0500)
Island Estates | Change Station
CLOSE
Current Station
Personal Weather Station
Location: Lantana, FL
Elevation: 45 ft
Nearby Weather Stations

Elev 45 ft 26.57 °N, 80.08 °W | Updated 4 minutes ago

Overcast
Overcast
75.4 °F
Feels Like 75 °F
N
13.0
Wind Variable Wind from East
Gusts 18.0 mph

Today
High -- | Low -- °F
--% Chance of Precip.
Yesterday
High -- | Low -- °F
Precip. -- in
6:44 AM 5:27 PM
New Moon, 0% visible
Pressure 30.09 in
Visibility 10.0 miles
Clouds Scattered Clouds 1500 ft
Mostly Cloudy 2200 ft
Overcast 3000 ft
Heat Index 75 °F
Dew Point 72 °F
Humidity 90%
Rainfall 0.00 in
Snow Depth Not available.
UV 16.0 out of 12
Pollen 4.30 out of 12
Air Quality Not available.
Flu Activity Not available.
METAR KPBI 230253Z 09020G28KT 10SM SCT015 BKN022 OVC030 25/21 A3009 RMK AO2 PK WND 09033/0157 SLP188 T02500211 58002

More Conditions Fewer Conditions

Pressure 30.09 in
Visibility 10.0 miles
Clouds Scattered Clouds 1500 ft
Mostly Cloudy 2200 ft
Overcast 3000 ft
Heat Index 75 °F
Dew Point 72 °F
Humidity 90%
Rainfall 0.00 in
Snow Depth Not available.
UV 16.0 out of 12
Pollen 4.30 out of 12
Air Quality Not available.
Flu Activity Not available.
METAR KPBI 230253Z 09020G28KT 10SM SCT015 BKN022 OVC030 25/21 A3009 RMK AO2 PK WND 09033/0157 SLP188 T02500211 58002

More Conditions Fewer Conditions

Nowcast | as of 10:42 PM EST on November 22, 2014

Showers and windy to breezy conditions will continue across the Atlantic coast Metro areas. Most of the shower activity is across the eastern half of Palm Beach County and the adjacent Atlantic waters. Occasional wind gusts from 25 to 30 mph are possible along the coastal zone.

×

10-Day Weather Forecast

Almanac

Astronomy

Nov. 22, 2014 Rise Set
Actual Time
Civil Twilight
Nautical Twilight
Astronomical Twilight
Moon
Length of Visible Light
Length of Day
Tomorrow will be .
, % of the Moon is Illuminated

Today's Extremes

State Highs State Lows

Community

WunderPhotos

Upload Photos

1,772,990 photos uploaded!

WunderBlogs® & News

Nearby

Air Quality

  Air Quality AQ Index Pollutant
Not available.

Snow Depth

Station Depth Elevation

Earthquake Activity

City Distance Mag. Time & Date
Minimum magnitude displayed is 2.5.

Coastal Water Temperatures

Place Temperature

Nearby Weather Stations